sensor_id;sensor_type;location;lat;lon;timestamp;P1;durP1;ratioP1;P2;durP2;ratioP2
6999;SDS011;3540;53.242;10.408;2023-06-22T00:00:49;6.00;;;5.03;;
6999;SDS011;3540;53.242;10.408;2023-06-22T00:03:17;5.57;;;4.60;;
6999;SDS011;3540;53.242;10.408;2023-06-22T00:05:43;8.17;;;5.07;;
6999;SDS011;3540;53.242;10.408;2023-06-22T00:08:10;6.27;;;4.90;;
6999;SDS011;3540;53.242;10.408;2023-06-22T00:10:35;5.60;;;4.70;;
6999;SDS011;3540;53.242;10.408;2023-06-22T00:13:01;5.53;;;4.90;;
6999;SDS011;3540;53.242;10.408;2023-06-22T00:15:27;7.10;;;4.83;;
6999;SDS011;3540;53.242;10.408;2023-06-22T00:17:52;6.67;;;4.80;;
6999;SDS011;3540;53.242;10.408;2023-06-22T00:20:18;6.03;;;5.00;;
6999;SDS011;3540;53.242;10.408;2023-06-22T00:22:44;6.23;;;4.73;;
6999;SDS011;3540;53.242;10.408;2023-06-22T00:25:10;10.17;;;5.20;;
6999;SDS011;3540;53.242;10.408;2023-06-22T00:27:36;4.83;;;4.40;;
6999;SDS011;3540;53.242;10.408;2023-06-22T00:30:02;11.43;;;4.93;;
6999;SDS011;3540;53.242;10.408;2023-06-22T00:32:28;7.07;;;4.67;;
6999;SDS011;3540;53.242;10.408;2023-06-22T00:34:54;8.40;;;4.70;;
6999;SDS011;3540;53.242;10.408;2023-06-22T00:37:19;6.13;;;4.70;;
6999;SDS011;3540;53.242;10.408;2023-06-22T00:39:51;6.90;;;4.47;;
6999;SDS011;3540;53.242;10.408;2023-06-22T00:42:17;5.90;;;4.70;;
6999;SDS011;3540;53.242;10.408;2023-06-22T00:44:42;5.83;;;4.53;;
6999;SDS011;3540;53.242;10.408;2023-06-22T00:47:10;5.60;;;4.30;;
6999;SDS011;3540;53.242;10.408;2023-06-22T00:49:37;5.40;;;4.57;;
6999;SDS011;3540;53.242;10.408;2023-06-22T00:52:03;7.63;;;4.60;;
6999;SDS011;3540;53.242;10.408;2023-06-22T00:54:34;6.10;;;4.70;;
6999;SDS011;3540;53.242;10.408;2023-06-22T00:57:01;5.00;;;4.50;;
6999;SDS011;3540;53.242;10.408;2023-06-22T00:59:27;4.80;;;4.40;;
6999;SDS011;3540;53.242;10.408;2023-06-22T01:01:53;5.33;;;4.47;;
6999;SDS011;3540;53.242;10.408;2023-06-22T01:04:19;5.50;;;4.40;;
6999;SDS011;3540;53.242;10.408;2023-06-22T01:06:45;5.73;;;4.53;;
6999;SDS011;3540;53.242;10.408;2023-06-22T01:09:27;5.37;;;4.37;;
6999;SDS011;3540;53.242;10.408;2023-06-22T01:11:59;5.40;;;4.50;;
6999;SDS011;3540;53.242;10.408;2023-06-22T01:14:28;9.43;;;5.43;;
6999;SDS011;3540;53.242;10.408;2023-06-22T01:17:00;6.40;;;4.80;;
6999;SDS011;3540;53.242;10.408;2023-06-22T01:21:59;6.93;;;4.90;;
6999;SDS011;3540;53.242;10.408;2023-06-22T01:24:27;7.93;;;4.60;;
6999;SDS011;3540;53.242;10.408;2023-06-22T01:29:47;4.90;;;4.40;;
6999;SDS011;3540;53.242;10.408;2023-06-22T01:32:17;6.97;;;4.97;;
6999;SDS011;3540;53.242;10.408;2023-06-22T01:34:44;6.13;;;4.93;;
6999;SDS011;3540;53.242;10.408;2023-06-22T01:37:11;5.83;;;4.80;;
6999;SDS011;3540;53.242;10.408;2023-06-22T01:39:38;5.27;;;4.50;;
6999;SDS011;3540;53.242;10.408;2023-06-22T01:42:04;8.40;;;4.40;;
6999;SDS011;3540;53.242;10.408;2023-06-22T01:44:31;6.17;;;4.93;;
6999;SDS011;3540;53.242;10.408;2023-06-22T01:46:57;5.47;;;4.57;;
6999;SDS011;3540;53.242;10.408;2023-06-22T01:49:24;6.93;;;4.90;;
6999;SDS011;3540;53.242;10.408;2023-06-22T01:51:50;8.63;;;4.67;;
6999;SDS011;3540;53.242;10.408;2023-06-22T01:54:16;5.07;;;4.53;;
6999;SDS011;3540;53.242;10.408;2023-06-22T01:56:41;5.93;;;5.00;;
6999;SDS011;3540;53.242;10.408;2023-06-22T02:02:06;4.73;;;4.23;;
6999;SDS011;3540;53.242;10.408;2023-06-22T02:04:38;5.80;;;4.60;;
6999;SDS011;3540;53.242;10.408;2023-06-22T02:07:05;6.50;;;4.63;;
6999;SDS011;3540;53.242;10.408;2023-06-22T02:09:36;6.07;;;4.60;;
6999;SDS011;3540;53.242;10.408;2023-06-22T02:12:04;5.93;;;4.63;;
6999;SDS011;3540;53.242;10.408;2023-06-22T02:14:31;7.40;;;4.33;;
6999;SDS011;3540;53.242;10.408;2023-06-22T02:16:57;8.90;;;4.50;;
6999;SDS011;3540;53.242;10.408;2023-06-22T02:19:26;4.90;;;4.40;;
6999;SDS011;3540;53.242;10.408;2023-06-22T02:21:52;8.33;;;5.00;;
6999;SDS011;3540;53.242;10.408;2023-06-22T02:24:18;4.67;;;4.20;;
6999;SDS011;3540;53.242;10.408;2023-06-22T02:26:43;7.57;;;4.77;;
6999;SDS011;3540;53.242;10.408;2023-06-22T02:29:10;6.47;;;4.53;;
6999;SDS011;3540;53.242;10.408;2023-06-22T02:31:36;5.70;;;4.50;;
6999;SDS011;3540;53.242;10.408;2023-06-22T02:34:02;5.07;;;4.13;;
6999;SDS011;3540;53.242;10.408;2023-06-22T02:36:27;4.53;;;4.13;;
6999;SDS011;3540;53.242;10.408;2023-06-22T02:38:55;7.17;;;4.30;;
6999;SDS011;3540;53.242;10.408;2023-06-22T02:41:24;5.00;;;4.57;;
6999;SDS011;3540;53.242;10.408;2023-06-22T02:43:49;5.53;;;4.40;;
6999;SDS011;3540;53.242;10.408;2023-06-22T02:46:15;5.57;;;4.37;;
6999;SDS011;3540;53.242;10.408;2023-06-22T02:48:41;4.97;;;4.47;;
6999;SDS011;3540;53.242;10.408;2023-06-22T02:51:06;6.37;;;4.47;;
6999;SDS011;3540;53.242;10.408;2023-06-22T02:53:32;6.17;;;4.57;;
6999;SDS011;3540;53.242;10.408;2023-06-22T02:55:58;6.53;;;4.23;;
6999;SDS011;3540;53.242;10.408;2023-06-22T02:58:23;4.37;;;3.97;;
6999;SDS011;3540;53.242;10.408;2023-06-22T03:00:49;4.40;;;4.00;;
6999;SDS011;3540;53.242;10.408;2023-06-22T03:03:18;4.83;;;4.17;;
6999;SDS011;3540;53.242;10.408;2023-06-22T03:05:44;4.60;;;4.13;;
6999;SDS011;3540;53.242;10.408;2023-06-22T03:08:10;6.07;;;4.60;;
6999;SDS011;3540;53.242;10.408;2023-06-22T03:10:35;5.30;;;4.23;;
6999;SDS011;3540;53.242;10.408;2023-06-22T03:13:01;4.77;;;4.10;;
6999;SDS011;3540;53.242;10.408;2023-06-22T03:15:27;4.70;;;4.23;;
6999;SDS011;3540;53.242;10.408;2023-06-22T03:17:54;5.27;;;4.10;;
6999;SDS011;3540;53.242;10.408;2023-06-22T03:20:20;4.33;;;3.93;;
6999;SDS011;3540;53.242;10.408;2023-06-22T03:22:46;5.30;;;4.33;;
6999;SDS011;3540;53.242;10.408;2023-06-22T03:25:13;6.70;;;4.00;;
6999;SDS011;3540;53.242;10.408;2023-06-22T03:27:39;5.40;;;4.23;;
6999;SDS011;3540;53.242;10.408;2023-06-22T03:30:06;6.10;;;4.27;;
6999;SDS011;3540;53.242;10.408;2023-06-22T03:32:33;5.53;;;4.40;;
6999;SDS011;3540;53.242;10.408;2023-06-22T03:34:59;5.00;;;4.30;;
6999;SDS011;3540;53.242;10.408;2023-06-22T03:37:25;5.63;;;4.60;;
6999;SDS011;3540;53.242;10.408;2023-06-22T03:39:51;7.53;;;4.73;;
6999;SDS011;3540;53.242;10.408;2023-06-22T03:42:17;5.77;;;4.23;;
6999;SDS011;3540;53.242;10.408;2023-06-22T03:44:43;5.13;;;4.17;;
6999;SDS011;3540;53.242;10.408;2023-06-22T03:47:09;5.20;;;4.30;;
6999;SDS011;3540;53.242;10.408;2023-06-22T03:49:35;4.53;;;4.07;;
6999;SDS011;3540;53.242;10.408;2023-06-22T03:52:01;6.33;;;4.60;;
6999;SDS011;3540;53.242;10.408;2023-06-22T03:54:28;4.60;;;4.13;;
6999;SDS011;3540;53.242;10.408;2023-06-22T03:56:54;5.27;;;4.37;;
6999;SDS011;3540;53.242;10.408;2023-06-22T03:59:21;5.23;;;4.50;;
6999;SDS011;3540;53.242;10.408;2023-06-22T04:01:46;5.80;;;5.20;;
6999;SDS011;3540;53.242;10.408;2023-06-22T04:04:12;5.60;;;4.60;;
6999;SDS011;3540;53.242;10.408;2023-06-22T04:06:38;4.83;;;4.33;;
6999;SDS011;3540;53.242;10.408;2023-06-22T04:09:05;5.30;;;4.80;;
6999;SDS011;3540;53.242;10.408;2023-06-22T04:11:31;7.37;;;4.40;;
6999;SDS011;3540;53.242;10.408;2023-06-22T04:13:56;6.53;;;4.50;;
6999;SDS011;3540;53.242;10.408;2023-06-22T04:16:22;8.57;;;5.17;;
6999;SDS011;3540;53.242;10.408;2023-06-22T04:18:47;6.03;;;4.80;;
6999;SDS011;3540;53.242;10.408;2023-06-22T04:21:13;6.77;;;6.00;;
6999;SDS011;3540;53.242;10.408;2023-06-22T04:23:39;6.60;;;5.20;;
6999;SDS011;3540;53.242;10.408;2023-06-22T04:26:05;6.50;;;5.00;;
6999;SDS011;3540;53.242;10.408;2023-06-22T04:28:30;6.50;;;4.90;;
6999;SDS011;3540;53.242;10.408;2023-06-22T04:31:00;5.20;;;4.70;;
6999;SDS011;3540;53.242;10.408;2023-06-22T04:33:26;6.63;;;4.80;;
6999;SDS011;3540;53.242;10.408;2023-06-22T04:35:54;5.23;;;4.73;;
6999;SDS011;3540;53.242;10.408;2023-06-22T04:38:22;4.83;;;4.43;;
6999;SDS011;3540;53.242;10.408;2023-06-22T04:40:47;5.90;;;4.60;;
6999;SDS011;3540;53.242;10.408;2023-06-22T04:43:13;5.93;;;4.70;;
6999;SDS011;3540;53.242;10.408;2023-06-22T04:45:39;9.73;;;5.20;;
6999;SDS011;3540;53.242;10.408;2023-06-22T04:48:05;7.47;;;4.70;;
6999;SDS011;3540;53.242;10.408;2023-06-22T04:50:31;6.40;;;5.20;;
6999;SDS011;3540;53.242;10.408;2023-06-22T04:52:56;9.60;;;5.60;;
6999;SDS011;3540;53.242;10.408;2023-06-22T04:55:22;5.57;;;4.90;;
6999;SDS011;3540;53.242;10.408;2023-06-22T04:57:51;6.60;;;5.03;;
6999;SDS011;3540;53.242;10.408;2023-06-22T05:00:19;5.97;;;4.40;;
6999;SDS011;3540;53.242;10.408;2023-06-22T05:02:48;5.73;;;4.40;;
6999;SDS011;3540;53.242;10.408;2023-06-22T05:05:14;4.93;;;4.37;;
6999;SDS011;3540;53.242;10.408;2023-06-22T05:07:44;7.43;;;4.70;;
6999;SDS011;3540;53.242;10.408;2023-06-22T05:10:13;7.33;;;4.67;;
6999;SDS011;3540;53.242;10.408;2023-06-22T05:12:39;7.63;;;5.10;;
6999;SDS011;3540;53.242;10.408;2023-06-22T05:15:07;9.60;;;4.97;;
6999;SDS011;3540;53.242;10.408;2023-06-22T05:17:33;5.17;;;4.50;;
6999;SDS011;3540;53.242;10.408;2023-06-22T05:20:00;6.33;;;5.40;;
6999;SDS011;3540;53.242;10.408;2023-06-22T05:22:26;7.83;;;4.37;;
6999;SDS011;3540;53.242;10.408;2023-06-22T05:24:51;5.07;;;4.30;;
6999;SDS011;3540;53.242;10.408;2023-06-22T05:27:17;5.97;;;4.27;;
6999;SDS011;3540;53.242;10.408;2023-06-22T05:29:42;5.53;;;4.70;;
6999;SDS011;3540;53.242;10.408;2023-06-22T05:32:08;6.33;;;4.60;;
6999;SDS011;3540;53.242;10.408;2023-06-22T05:34:34;5.73;;;4.53;;
6999;SDS011;3540;53.242;10.408;2023-06-22T05:37:00;10.67;;;4.80;;
6999;SDS011;3540;53.242;10.408;2023-06-22T05:39:25;5.93;;;4.43;;
6999;SDS011;3540;53.242;10.408;2023-06-22T05:41:51;7.17;;;4.30;;
6999;SDS011;3540;53.242;10.408;2023-06-22T05:44:17;5.27;;;4.23;;
6999;SDS011;3540;53.242;10.408;2023-06-22T05:46:44;5.93;;;4.33;;
6999;SDS011;3540;53.242;10.408;2023-06-22T05:49:11;5.83;;;4.10;;
6999;SDS011;3540;53.242;10.408;2023-06-22T05:51:37;4.97;;;4.27;;
6999;SDS011;3540;53.242;10.408;2023-06-22T05:54:03;5.87;;;4.17;;
6999;SDS011;3540;53.242;10.408;2023-06-22T05:56:29;6.17;;;4.07;;
6999;SDS011;3540;53.242;10.408;2023-06-22T05:58:55;4.40;;;3.83;;
6999;SDS011;3540;53.242;10.408;2023-06-22T06:01:21;5.50;;;3.67;;
6999;SDS011;3540;53.242;10.408;2023-06-22T06:03:46;4.83;;;3.63;;
6999;SDS011;3540;53.242;10.408;2023-06-22T06:06:12;4.10;;;3.40;;
6999;SDS011;3540;53.242;10.408;2023-06-22T06:08:38;7.50;;;4.37;;
6999;SDS011;3540;53.242;10.408;2023-06-22T06:11:04;5.07;;;4.20;;
6999;SDS011;3540;53.242;10.408;2023-06-22T06:13:29;5.80;;;3.77;;
6999;SDS011;3540;53.242;10.408;2023-06-22T06:15:56;6.80;;;4.40;;
6999;SDS011;3540;53.242;10.408;2023-06-22T06:18:22;5.13;;;4.00;;
6999;SDS011;3540;53.242;10.408;2023-06-22T06:20:48;7.30;;;4.20;;
6999;SDS011;3540;53.242;10.408;2023-06-22T06:23:13;4.70;;;3.90;;
6999;SDS011;3540;53.242;10.408;2023-06-22T06:25:39;6.93;;;4.20;;
6999;SDS011;3540;53.242;10.408;2023-06-22T06:28:05;6.73;;;4.00;;
6999;SDS011;3540;53.242;10.408;2023-06-22T06:30:30;7.90;;;4.07;;
6999;SDS011;3540;53.242;10.408;2023-06-22T06:32:56;5.37;;;3.93;;
6999;SDS011;3540;53.242;10.408;2023-06-22T06:35:22;5.30;;;4.13;;
6999;SDS011;3540;53.242;10.408;2023-06-22T06:37:48;7.93;;;4.20;;
6999;SDS011;3540;53.242;10.408;2023-06-22T06:40:15;5.87;;;4.30;;
6999;SDS011;3540;53.242;10.408;2023-06-22T06:42:46;5.67;;;3.67;;
6999;SDS011;3540;53.242;10.408;2023-06-22T06:45:31;6.97;;;4.33;;
6999;SDS011;3540;53.242;10.408;2023-06-22T06:47:59;5.23;;;4.27;;
6999;SDS011;3540;53.242;10.408;2023-06-22T06:50:25;5.37;;;3.90;;
6999;SDS011;3540;53.242;10.408;2023-06-22T06:52:50;6.63;;;4.03;;
6999;SDS011;3540;53.242;10.408;2023-06-22T06:55:16;5.77;;;4.10;;
6999;SDS011;3540;53.242;10.408;2023-06-22T06:57:42;5.70;;;4.40;;
6999;SDS011;3540;53.242;10.408;2023-06-22T07:00:09;7.50;;;3.80;;
6999;SDS011;3540;53.242;10.408;2023-06-22T07:02:38;4.60;;;4.10;;
6999;SDS011;3540;53.242;10.408;2023-06-22T07:05:05;6.10;;;4.30;;
6999;SDS011;3540;53.242;10.408;2023-06-22T07:07:31;5.83;;;4.03;;
6999;SDS011;3540;53.242;10.408;2023-06-22T07:09:57;5.17;;;3.83;;
6999;SDS011;3540;53.242;10.408;2023-06-22T07:12:23;6.17;;;3.77;;
6999;SDS011;3540;53.242;10.408;2023-06-22T07:14:49;5.77;;;3.60;;
6999;SDS011;3540;53.242;10.408;2023-06-22T07:17:15;5.53;;;4.00;;
6999;SDS011;3540;53.242;10.408;2023-06-22T07:19:41;9.10;;;3.60;;
6999;SDS011;3540;53.242;10.408;2023-06-22T07:22:07;5.70;;;3.67;;
6999;SDS011;3540;53.242;10.408;2023-06-22T07:24:34;5.43;;;3.57;;
6999;SDS011;3540;53.242;10.408;2023-06-22T07:27:00;5.65;;;3.60;;
6999;SDS011;3540;53.242;10.408;2023-06-22T07:29:27;4.85;;;3.45;;
6999;SDS011;3540;53.242;10.408;2023-06-22T07:31:53;4.95;;;3.22;;
6999;SDS011;3540;53.242;10.408;2023-06-22T07:34:21;6.97;;;3.67;;
6999;SDS011;3540;53.242;10.408;2023-06-22T07:36:47;6.13;;;3.50;;
6999;SDS011;3540;53.242;10.408;2023-06-22T07:39:13;4.25;;;3.30;;
6999;SDS011;3540;53.242;10.408;2023-06-22T07:41:40;4.15;;;3.45;;
6999;SDS011;3540;53.242;10.408;2023-06-22T07:44:06;4.22;;;3.10;;
6999;SDS011;3540;53.242;10.408;2023-06-22T07:46:32;6.55;;;3.78;;
6999;SDS011;3540;53.242;10.408;2023-06-22T07:48:58;5.93;;;3.60;;
6999;SDS011;3540;53.242;10.408;2023-06-22T07:51:24;7.03;;;3.67;;
6999;SDS011;3540;53.242;10.408;2023-06-22T07:53:50;5.05;;;3.63;;
6999;SDS011;3540;53.242;10.408;2023-06-22T07:56:16;6.55;;;3.25;;
6999;SDS011;3540;53.242;10.408;2023-06-22T07:58:46;4.50;;;3.22;;
6999;SDS011;3540;53.242;10.408;2023-06-22T08:01:12;4.30;;;3.47;;
6999;SDS011;3540;53.242;10.408;2023-06-22T08:03:41;5.43;;;3.42;;
6999;SDS011;3540;53.242;10.408;2023-06-22T08:06:08;7.28;;;3.65;;
6999;SDS011;3540;53.242;10.408;2023-06-22T08:08:34;4.45;;;2.97;;
6999;SDS011;3540;53.242;10.408;2023-06-22T08:11:00;4.53;;;3.30;;
6999;SDS011;3540;53.242;10.408;2023-06-22T08:13:26;5.47;;;2.70;;
6999;SDS011;3540;53.242;10.408;2023-06-22T08:15:52;4.93;;;3.13;;
6999;SDS011;3540;53.242;10.408;2023-06-22T08:18:17;3.42;;;2.67;;
6999;SDS011;3540;53.242;10.408;2023-06-22T08:20:43;4.45;;;2.92;;
6999;SDS011;3540;53.242;10.408;2023-06-22T08:23:09;4.07;;;2.63;;
6999;SDS011;3540;53.242;10.408;2023-06-22T08:25:34;3.22;;;2.90;;
6999;SDS011;3540;53.242;10.408;2023-06-22T08:28:03;5.88;;;3.70;;
6999;SDS011;3540;53.242;10.408;2023-06-22T08:30:30;6.30;;;3.00;;
6999;SDS011;3540;53.242;10.408;2023-06-22T08:32:55;5.60;;;3.20;;
6999;SDS011;3540;53.242;10.408;2023-06-22T08:35:22;3.13;;;2.88;;
6999;SDS011;3540;53.242;10.408;2023-06-22T08:37:48;5.55;;;3.47;;
6999;SDS011;3540;53.242;10.408;2023-06-22T08:40:22;3.15;;;2.80;;
6999;SDS011;3540;53.242;10.408;2023-06-22T08:42:49;4.32;;;3.40;;
6999;SDS011;3540;53.242;10.408;2023-06-22T08:45:15;4.60;;;3.33;;
6999;SDS011;3540;53.242;10.408;2023-06-22T08:47:41;6.53;;;3.30;;
6999;SDS011;3540;53.242;10.408;2023-06-22T08:50:10;6.30;;;3.15;;
6999;SDS011;3540;53.242;10.408;2023-06-22T08:52:37;5.88;;;3.42;;
6999;SDS011;3540;53.242;10.408;2023-06-22T08:55:06;4.38;;;3.42;;
6999;SDS011;3540;53.242;10.408;2023-06-22T08:57:32;6.00;;;3.55;;
6999;SDS011;3540;53.242;10.408;2023-06-22T08:59:58;3.97;;;3.17;;
6999;SDS011;3540;53.242;10.408;2023-06-22T09:02:27;3.78;;;3.17;;
6999;SDS011;3540;53.242;10.408;2023-06-22T09:04:56;4.68;;;2.55;;
6999;SDS011;3540;53.242;10.408;2023-06-22T09:07:22;3.38;;;2.90;;
6999;SDS011;3540;53.242;10.408;2023-06-22T09:09:49;9.32;;;3.38;;
6999;SDS011;3540;53.242;10.408;2023-06-22T09:12:16;4.28;;;3.13;;
6999;SDS011;3540;53.242;10.408;2023-06-22T09:14:42;3.40;;;3.10;;
6999;SDS011;3540;53.242;10.408;2023-06-22T09:17:07;3.38;;;2.67;;
6999;SDS011;3540;53.242;10.408;2023-06-22T09:19:33;4.60;;;2.83;;
6999;SDS011;3540;53.242;10.408;2023-06-22T09:21:59;3.85;;;3.10;;
6999;SDS011;3540;53.242;10.408;2023-06-22T09:24:25;5.57;;;3.30;;
6999;SDS011;3540;53.242;10.408;2023-06-22T09:26:51;5.28;;;3.03;;
6999;SDS011;3540;53.242;10.408;2023-06-22T09:29:16;4.25;;;3.13;;
6999;SDS011;3540;53.242;10.408;2023-06-22T09:31:42;5.20;;;2.90;;
6999;SDS011;3540;53.242;10.408;2023-06-22T09:34:09;4.38;;;3.20;;
6999;SDS011;3540;53.242;10.408;2023-06-22T09:36:34;3.60;;;3.15;;
6999;SDS011;3540;53.242;10.408;2023-06-22T09:39:00;4.18;;;2.85;;
6999;SDS011;3540;53.242;10.408;2023-06-22T09:41:30;4.60;;;3.42;;
6999;SDS011;3540;53.242;10.408;2023-06-22T09:43:56;4.80;;;3.13;;
6999;SDS011;3540;53.242;10.408;2023-06-22T09:46:22;3.40;;;3.10;;
6999;SDS011;3540;53.242;10.408;2023-06-22T09:48:50;4.07;;;3.00;;
6999;SDS011;3540;53.242;10.408;2023-06-22T09:51:16;4.85;;;3.15;;
6999;SDS011;3540;53.242;10.408;2023-06-22T09:53:41;3.40;;;3.03;;
6999;SDS011;3540;53.242;10.408;2023-06-22T09:56:07;3.45;;;3.10;;
6999;SDS011;3540;53.242;10.408;2023-06-22T09:58:39;4.28;;;3.17;;
6999;SDS011;3540;53.242;10.408;2023-06-22T10:01:08;4.20;;;3.13;;
6999;SDS011;3540;53.242;10.408;2023-06-22T10:03:35;4.50;;;2.95;;
6999;SDS011;3540;53.242;10.408;2023-06-22T10:06:01;7.78;;;3.50;;
6999;SDS011;3540;53.242;10.408;2023-06-22T10:08:27;5.15;;;3.67;;
6999;SDS011;3540;53.242;10.408;2023-06-22T10:10:52;3.95;;;3.20;;
6999;SDS011;3540;53.242;10.408;2023-06-22T10:13:18;5.03;;;3.40;;
6999;SDS011;3540;53.242;10.408;2023-06-22T10:15:44;3.50;;;3.20;;
6999;SDS011;3540;53.242;10.408;2023-06-22T10:18:16;6.18;;;3.50;;
6999;SDS011;3540;53.242;10.408;2023-06-22T10:20:42;3.38;;;3.00;;
6999;SDS011;3540;53.242;10.408;2023-06-22T10:23:08;7.28;;;3.15;;
6999;SDS011;3540;53.242;10.408;2023-06-22T10:25:33;3.65;;;3.22;;
6999;SDS011;3540;53.242;10.408;2023-06-22T10:27:59;8.07;;;3.50;;
6999;SDS011;3540;53.242;10.408;2023-06-22T10:30:25;3.85;;;3.20;;
6999;SDS011;3540;53.242;10.408;2023-06-22T10:32:50;3.85;;;3.35;;
6999;SDS011;3540;53.242;10.408;2023-06-22T10:35:16;6.28;;;3.78;;
6999;SDS011;3540;53.242;10.408;2023-06-22T10:37:45;4.28;;;3.78;;
6999;SDS011;3540;53.242;10.408;2023-06-22T10:40:15;4.00;;;3.60;;
6999;SDS011;3540;53.242;10.408;2023-06-22T10:42:42;7.30;;;3.60;;
6999;SDS011;3540;53.242;10.408;2023-06-22T10:45:08;5.40;;;3.70;;
6999;SDS011;3540;53.242;10.408;2023-06-22T10:47:34;5.32;;;3.47;;
6999;SDS011;3540;53.242;10.408;2023-06-22T10:50:01;4.80;;;3.80;;
6999;SDS011;3540;53.242;10.408;2023-06-22T10:52:27;4.35;;;3.95;;
6999;SDS011;3540;53.242;10.408;2023-06-22T10:54:52;4.95;;;3.72;;
6999;SDS011;3540;53.242;10.408;2023-06-22T10:57:18;5.10;;;3.72;;
6999;SDS011;3540;53.242;10.408;2023-06-22T10:59:44;4.10;;;3.67;;
6999;SDS011;3540;53.242;10.408;2023-06-22T11:02:09;6.20;;;3.47;;
6999;SDS011;3540;53.242;10.408;2023-06-22T11:04:35;5.00;;;3.70;;
6999;SDS011;3540;53.242;10.408;2023-06-22T11:07:01;4.82;;;3.75;;
6999;SDS011;3540;53.242;10.408;2023-06-22T11:09:27;4.75;;;4.05;;
6999;SDS011;3540;53.242;10.408;2023-06-22T11:11:53;4.30;;;3.50;;
6999;SDS011;3540;53.242;10.408;2023-06-22T11:14:19;3.97;;;3.30;;
6999;SDS011;3540;53.242;10.408;2023-06-22T11:16:45;3.65;;;3.33;;
6999;SDS011;3540;53.242;10.408;2023-06-22T11:19:11;4.00;;;3.60;;
6999;SDS011;3540;53.242;10.408;2023-06-22T11:21:37;3.97;;;3.55;;
6999;SDS011;3540;53.242;10.408;2023-06-22T11:24:03;4.60;;;3.63;;
6999;SDS011;3540;53.242;10.408;2023-06-22T11:26:29;5.30;;;3.72;;
6999;SDS011;3540;53.242;10.408;2023-06-22T11:28:56;5.82;;;4.05;;
6999;SDS011;3540;53.242;10.408;2023-06-22T11:31:22;7.32;;;3.70;;
6999;SDS011;3540;53.242;10.408;2023-06-22T11:33:48;3.92;;;3.63;;
6999;SDS011;3540;53.242;10.408;2023-06-22T11:36:14;4.28;;;3.75;;
6999;SDS011;3540;53.242;10.408;2023-06-22T11:38:40;4.40;;;4.00;;
6999;SDS011;3540;53.242;10.408;2023-06-22T11:41:07;4.90;;;4.15;;
6999;SDS011;3540;53.242;10.408;2023-06-22T11:43:33;5.22;;;4.18;;
6999;SDS011;3540;53.242;10.408;2023-06-22T11:46:00;4.28;;;3.88;;
6999;SDS011;3540;53.242;10.408;2023-06-22T11:48:29;9.38;;;4.85;;
6999;SDS011;3540;53.242;10.408;2023-06-22T11:50:55;5.38;;;4.57;;
6999;SDS011;3540;53.242;10.408;2023-06-22T11:53:21;5.93;;;4.10;;
6999;SDS011;3540;53.242;10.408;2023-06-22T11:55:49;5.30;;;4.38;;
6999;SDS011;3540;53.242;10.408;2023-06-22T11:58:15;6.43;;;4.32;;
6999;SDS011;3540;53.242;10.408;2023-06-22T12:00:40;6.05;;;4.40;;
6999;SDS011;3540;53.242;10.408;2023-06-22T12:03:06;5.00;;;4.50;;
6999;SDS011;3540;53.242;10.408;2023-06-22T12:05:32;6.32;;;4.10;;
6999;SDS011;3540;53.242;10.408;2023-06-22T12:07:58;4.88;;;4.10;;
6999;SDS011;3540;53.242;10.408;2023-06-22T12:10:27;6.50;;;4.47;;
6999;SDS011;3540;53.242;10.408;2023-06-22T12:12:55;5.57;;;4.35;;
6999;SDS011;3540;53.242;10.408;2023-06-22T12:15:22;8.52;;;4.30;;
6999;SDS011;3540;53.242;10.408;2023-06-22T12:17:48;6.95;;;4.55;;
6999;SDS011;3540;53.242;10.408;2023-06-22T12:20:14;4.95;;;4.22;;
6999;SDS011;3540;53.242;10.408;2023-06-22T12:22:40;5.70;;;3.92;;
6999;SDS011;3540;53.242;10.408;2023-06-22T12:25:06;4.68;;;4.13;;
6999;SDS011;3540;53.242;10.408;2023-06-22T12:27:33;10.13;;;4.35;;
6999;SDS011;3540;53.242;10.408;2023-06-22T12:29:59;7.40;;;4.47;;
6999;SDS011;3540;53.242;10.408;2023-06-22T12:32:25;6.28;;;4.03;;
6999;SDS011;3540;53.242;10.408;2023-06-22T12:34:51;5.85;;;4.53;;
6999;SDS011;3540;53.242;10.408;2023-06-22T12:37:17;5.05;;;4.55;;
6999;SDS011;3540;53.242;10.408;2023-06-22T12:39:43;4.82;;;4.30;;
6999;SDS011;3540;53.242;10.408;2023-06-22T12:42:09;6.90;;;4.65;;
6999;SDS011;3540;53.242;10.408;2023-06-22T12:44:37;9.85;;;4.90;;
6999;SDS011;3540;53.242;10.408;2023-06-22T12:47:03;7.35;;;4.70;;
6999;SDS011;3540;53.242;10.408;2023-06-22T12:49:29;5.13;;;4.60;;
6999;SDS011;3540;53.242;10.408;2023-06-22T12:51:55;6.35;;;4.75;;
6999;SDS011;3540;53.242;10.408;2023-06-22T12:54:20;5.13;;;4.18;;
6999;SDS011;3540;53.242;10.408;2023-06-22T12:56:46;5.07;;;4.57;;
6999;SDS011;3540;53.242;10.408;2023-06-22T12:59:12;4.97;;;4.57;;
6999;SDS011;3540;53.242;10.408;2023-06-22T13:01:37;4.85;;;4.32;;
6999;SDS011;3540;53.242;10.408;2023-06-22T13:04:03;6.70;;;4.53;;
6999;SDS011;3540;53.242;10.408;2023-06-22T13:06:30;4.47;;;4.00;;
6999;SDS011;3540;53.242;10.408;2023-06-22T13:08:56;4.63;;;3.97;;
6999;SDS011;3540;53.242;10.408;2023-06-22T13:11:21;6.85;;;4.60;;
6999;SDS011;3540;53.242;10.408;2023-06-22T13:13:47;6.20;;;4.68;;
6999;SDS011;3540;53.242;10.408;2023-06-22T13:16:12;5.78;;;4.45;;
6999;SDS011;3540;53.242;10.408;2023-06-22T13:18:38;9.57;;;4.50;;
6999;SDS011;3540;53.242;10.408;2023-06-22T13:21:04;9.13;;;5.03;;
6999;SDS011;3540;53.242;10.408;2023-06-22T13:23:30;6.40;;;5.15;;
6999;SDS011;3540;53.242;10.408;2023-06-22T13:25:56;4.72;;;4.30;;
6999;SDS011;3540;53.242;10.408;2023-06-22T13:28:22;6.22;;;4.95;;
6999;SDS011;3540;53.242;10.408;2023-06-22T13:30:48;7.72;;;4.63;;
6999;SDS011;3540;53.242;10.408;2023-06-22T13:33:14;8.10;;;4.78;;
6999;SDS011;3540;53.242;10.408;2023-06-22T13:35:40;5.80;;;4.55;;
6999;SDS011;3540;53.242;10.408;2023-06-22T13:38:07;7.65;;;4.43;;
6999;SDS011;3540;53.242;10.408;2023-06-22T13:40:34;8.52;;;4.68;;
6999;SDS011;3540;53.242;10.408;2023-06-22T13:42:59;8.48;;;4.93;;
6999;SDS011;3540;53.242;10.408;2023-06-22T13:45:25;7.07;;;4.82;;
6999;SDS011;3540;53.242;10.408;2023-06-22T13:47:51;6.63;;;4.63;;
6999;SDS011;3540;53.242;10.408;2023-06-22T13:50:17;8.05;;;4.97;;
6999;SDS011;3540;53.242;10.408;2023-06-22T13:52:43;5.47;;;4.05;;
6999;SDS011;3540;53.242;10.408;2023-06-22T13:55:08;7.20;;;4.50;;
6999;SDS011;3540;53.242;10.408;2023-06-22T13:57:35;6.25;;;4.10;;
6999;SDS011;3540;53.242;10.408;2023-06-22T14:00:01;5.53;;;4.60;;
6999;SDS011;3540;53.242;10.408;2023-06-22T14:02:28;4.55;;;4.15;;
6999;SDS011;3540;53.242;10.408;2023-06-22T14:04:54;4.97;;;4.53;;
6999;SDS011;3540;53.242;10.408;2023-06-22T14:07:20;4.97;;;4.55;;
6999;SDS011;3540;53.242;10.408;2023-06-22T14:09:46;4.80;;;4.25;;
6999;SDS011;3540;53.242;10.408;2023-06-22T14:12:11;6.30;;;4.53;;
6999;SDS011;3540;53.242;10.408;2023-06-22T14:14:37;5.30;;;4.80;;
6999;SDS011;3540;53.242;10.408;2023-06-22T14:17:03;4.82;;;4.35;;
6999;SDS011;3540;53.242;10.408;2023-06-22T14:19:30;4.93;;;4.43;;
6999;SDS011;3540;53.242;10.408;2023-06-22T14:21:57;4.65;;;4.18;;
6999;SDS011;3540;53.242;10.408;2023-06-22T14:24:23;5.30;;;4.80;;
6999;SDS011;3540;53.242;10.408;2023-06-22T14:26:48;4.53;;;4.07;;
6999;SDS011;3540;53.242;10.408;2023-06-22T14:29:14;7.18;;;4.70;;
6999;SDS011;3540;53.242;10.408;2023-06-22T14:31:40;6.45;;;4.90;;
6999;SDS011;3540;53.242;10.408;2023-06-22T14:34:06;5.00;;;4.50;;
6999;SDS011;3540;53.242;10.408;2023-06-22T14:36:31;6.13;;;4.75;;
6999;SDS011;3540;53.242;10.408;2023-06-22T14:38:57;7.75;;;4.75;;
6999;SDS011;3540;53.242;10.408;2023-06-22T14:41:23;4.95;;;4.45;;
6999;SDS011;3540;53.242;10.408;2023-06-22T14:43:51;6.25;;;4.50;;
6999;SDS011;3540;53.242;10.408;2023-06-22T14:46:18;5.30;;;4.80;;
6999;SDS011;3540;53.242;10.408;2023-06-22T14:48:44;5.55;;;5.05;;
6999;SDS011;3540;53.242;10.408;2023-06-22T14:51:11;8.00;;;5.18;;
6999;SDS011;3540;53.242;10.408;2023-06-22T14:53:37;5.82;;;4.45;;
6999;SDS011;3540;53.242;10.408;2023-06-22T14:56:03;5.40;;;4.90;;
6999;SDS011;3540;53.242;10.408;2023-06-22T14:58:32;5.97;;;5.47;;
6999;SDS011;3540;53.242;10.408;2023-06-22T15:01:04;5.95;;;5.35;;
6999;SDS011;3540;53.242;10.408;2023-06-22T15:03:33;5.50;;;5.00;;